sensor_id;sensor_type;location;lat;lon;timestamp;P1;durP1;ratioP1;P2;durP2;ratioP2
8042;SDS011;4064;48.132;11.366;2023-08-30T00:00:37;10.77;;;9.13;;
8042;SDS011;4064;48.132;11.366;2023-08-30T00:03:04;11.00;;;9.73;;
8042;SDS011;4064;48.132;11.366;2023-08-30T00:05:31;12.70;;;11.07;;
8042;SDS011;4064;48.132;11.366;2023-08-30T00:07:56;9.50;;;8.40;;
8042;SDS011;4064;48.132;11.366;2023-08-30T00:10:22;11.07;;;9.63;;
8042;SDS011;4064;48.132;11.366;2023-08-30T00:12:48;12.50;;;10.40;;
8042;SDS011;4064;48.132;11.366;2023-08-30T00:15:14;11.33;;;9.90;;
8042;SDS011;4064;48.132;11.366;2023-08-30T00:17:39;10.47;;;9.20;;
8042;SDS011;4064;48.132;11.366;2023-08-30T00:20:05;10.40;;;8.87;;
8042;SDS011;4064;48.132;11.366;2023-08-30T00:22:31;10.90;;;9.77;;
8042;SDS011;4064;48.132;11.366;2023-08-30T00:24:58;11.17;;;9.77;;
8042;SDS011;4064;48.132;11.366;2023-08-30T00:27:24;12.70;;;9.77;;
8042;SDS011;4064;48.132;11.366;2023-08-30T00:29:49;11.37;;;10.17;;
8042;SDS011;4064;48.132;11.366;2023-08-30T00:32:15;10.97;;;9.13;;
8042;SDS011;4064;48.132;11.366;2023-08-30T00:34:40;13.27;;;11.27;;
8042;SDS011;4064;48.132;11.366;2023-08-30T00:37:06;10.67;;;9.67;;
8042;SDS011;4064;48.132;11.366;2023-08-30T00:39:33;12.27;;;9.90;;
8042;SDS011;4064;48.132;11.366;2023-08-30T00:41:59;11.67;;;9.97;;
8042;SDS011;4064;48.132;11.366;2023-08-30T00:44:29;9.53;;;8.53;;
8042;SDS011;4064;48.132;11.366;2023-08-30T00:46:55;9.80;;;8.80;;
8042;SDS011;4064;48.132;11.366;2023-08-30T00:49:21;10.33;;;9.33;;
8042;SDS011;4064;48.132;11.366;2023-08-30T00:51:46;10.40;;;8.77;;
8042;SDS011;4064;48.132;11.366;2023-08-30T00:54:12;11.17;;;9.30;;
8042;SDS011;4064;48.132;11.366;2023-08-30T00:56:37;9.97;;;8.90;;
8042;SDS011;4064;48.132;11.366;2023-08-30T00:59:03;12.13;;;10.73;;
8042;SDS011;4064;48.132;11.366;2023-08-30T01:01:29;12.23;;;9.13;;
8042;SDS011;4064;48.132;11.366;2023-08-30T01:03:54;11.30;;;9.60;;
8042;SDS011;4064;48.132;11.366;2023-08-30T01:06:20;10.13;;;9.10;;
8042;SDS011;4064;48.132;11.366;2023-08-30T01:08:46;9.97;;;9.00;;
8042;SDS011;4064;48.132;11.366;2023-08-30T01:14:06;10.27;;;9.17;;
8042;SDS011;4064;48.132;11.366;2023-08-30T01:16:35;9.20;;;7.93;;
8042;SDS011;4064;48.132;11.366;2023-08-30T01:19:03;9.20;;;8.10;;
8042;SDS011;4064;48.132;11.366;2023-08-30T01:21:48;8.87;;;7.97;;
8042;SDS011;4064;48.132;11.366;2023-08-30T01:24:26;8.47;;;7.57;;
8042;SDS011;4064;48.132;11.366;2023-08-30T01:27:18;11.00;;;8.07;;
8042;SDS011;4064;48.132;11.366;2023-08-30T01:29:44;9.67;;;8.67;;
8042;SDS011;4064;48.132;11.366;2023-08-30T01:32:11;11.13;;;8.50;;
8042;SDS011;4064;48.132;11.366;2023-08-30T01:34:38;9.23;;;8.27;;
8042;SDS011;4064;48.132;11.366;2023-08-30T01:37:05;10.20;;;8.87;;
8042;SDS011;4064;48.132;11.366;2023-08-30T01:39:33;10.30;;;8.17;;
8042;SDS011;4064;48.132;11.366;2023-08-30T01:42:01;9.97;;;8.47;;
8042;SDS011;4064;48.132;11.366;2023-08-30T01:44:28;9.23;;;8.10;;
8042;SDS011;4064;48.132;11.366;2023-08-30T01:46:54;9.43;;;8.53;;
8042;SDS011;4064;48.132;11.366;2023-08-30T01:49:22;8.13;;;7.03;;
8042;SDS011;4064;48.132;11.366;2023-08-30T01:51:49;9.83;;;8.83;;
8042;SDS011;4064;48.132;11.366;2023-08-30T01:54:17;8.57;;;7.67;;
8042;SDS011;4064;48.132;11.366;2023-08-30T01:56:44;8.90;;;7.53;;
8042;SDS011;4064;48.132;11.366;2023-08-30T01:59:10;8.10;;;6.97;;
8042;SDS011;4064;48.132;11.366;2023-08-30T02:01:36;9.47;;;8.13;;
8042;SDS011;4064;48.132;11.366;2023-08-30T02:04:01;8.23;;;7.33;;
8042;SDS011;4064;48.132;11.366;2023-08-30T02:06:30;8.70;;;7.80;;
8042;SDS011;4064;48.132;11.366;2023-08-30T02:09:02;9.13;;;7.60;;
8042;SDS011;4064;48.132;11.366;2023-08-30T02:11:48;7.47;;;6.73;;
8042;SDS011;4064;48.132;11.366;2023-08-30T02:14:17;7.27;;;6.57;;
8042;SDS011;4064;48.132;11.366;2023-08-30T02:16:45;7.83;;;7.03;;
8042;SDS011;4064;48.132;11.366;2023-08-30T02:19:12;9.23;;;7.10;;
8042;SDS011;4064;48.132;11.366;2023-08-30T02:21:41;8.67;;;7.50;;
8042;SDS011;4064;48.132;11.366;2023-08-30T02:24:07;8.83;;;6.60;;
8042;SDS011;4064;48.132;11.366;2023-08-30T02:26:33;8.13;;;7.33;;
8042;SDS011;4064;48.132;11.366;2023-08-30T02:28:59;9.63;;;8.20;;
8042;SDS011;4064;48.132;11.366;2023-08-30T02:31:24;7.43;;;6.73;;
8042;SDS011;4064;48.132;11.366;2023-08-30T02:33:50;8.43;;;6.57;;
8042;SDS011;4064;48.132;11.366;2023-08-30T02:36:16;9.80;;;7.20;;
8042;SDS011;4064;48.132;11.366;2023-08-30T02:38:41;7.93;;;7.13;;
8042;SDS011;4064;48.132;11.366;2023-08-30T02:41:07;9.40;;;8.20;;
8042;SDS011;4064;48.132;11.366;2023-08-30T02:43:32;7.70;;;7.00;;
8042;SDS011;4064;48.132;11.366;2023-08-30T02:45:58;7.83;;;6.40;;
8042;SDS011;4064;48.132;11.366;2023-08-30T02:48:23;8.37;;;7.10;;
8042;SDS011;4064;48.132;11.366;2023-08-30T02:50:49;7.20;;;6.50;;
8042;SDS011;4064;48.132;11.366;2023-08-30T02:53:15;6.93;;;6.23;;
8042;SDS011;4064;48.132;11.366;2023-08-30T02:55:40;7.10;;;6.40;;
8042;SDS011;4064;48.132;11.366;2023-08-30T02:58:06;7.10;;;6.40;;
8042;SDS011;4064;48.132;11.366;2023-08-30T03:00:31;7.83;;;7.07;;
8042;SDS011;4064;48.132;11.366;2023-08-30T03:02:59;7.43;;;6.63;;
8042;SDS011;4064;48.132;11.366;2023-08-30T03:05:24;7.00;;;6.30;;
8042;SDS011;4064;48.132;11.366;2023-08-30T03:07:50;7.20;;;6.50;;
8042;SDS011;4064;48.132;11.366;2023-08-30T03:10:17;6.63;;;6.03;;
8042;SDS011;4064;48.132;11.366;2023-08-30T03:12:43;7.17;;;6.47;;
8042;SDS011;4064;48.132;11.366;2023-08-30T03:15:09;9.10;;;6.07;;
8042;SDS011;4064;48.132;11.366;2023-08-30T03:17:35;6.10;;;5.50;;
8042;SDS011;4064;48.132;11.366;2023-08-30T03:20:01;8.00;;;7.20;;
8042;SDS011;4064;48.132;11.366;2023-08-30T03:22:28;6.80;;;6.10;;
8042;SDS011;4064;48.132;11.366;2023-08-30T03:24:54;7.10;;;6.50;;
8042;SDS011;4064;48.132;11.366;2023-08-30T03:27:20;7.07;;;6.33;;
8042;SDS011;4064;48.132;11.366;2023-08-30T03:29:45;6.60;;;6.00;;
8042;SDS011;4064;48.132;11.366;2023-08-30T03:32:14;7.67;;;6.00;;
8042;SDS011;4064;48.132;11.366;2023-08-30T03:34:43;5.80;;;5.30;;
8042;SDS011;4064;48.132;11.366;2023-08-30T03:37:10;6.53;;;5.40;;
8042;SDS011;4064;48.132;11.366;2023-08-30T03:39:36;7.13;;;6.43;;
8042;SDS011;4064;48.132;11.366;2023-08-30T03:42:01;7.53;;;6.83;;
8042;SDS011;4064;48.132;11.366;2023-08-30T03:44:27;6.33;;;5.67;;
8042;SDS011;4064;48.132;11.366;2023-08-30T03:46:53;8.80;;;6.43;;
8042;SDS011;4064;48.132;11.366;2023-08-30T03:49:18;7.13;;;6.07;;
8042;SDS011;4064;48.132;11.366;2023-08-30T03:51:44;6.23;;;5.60;;
8042;SDS011;4064;48.132;11.366;2023-08-30T03:54:09;6.70;;;6.03;;
8042;SDS011;4064;48.132;11.366;2023-08-30T03:56:41;6.40;;;5.80;;
8042;SDS011;4064;48.132;11.366;2023-08-30T03:59:09;7.80;;;6.70;;
8042;SDS011;4064;48.132;11.366;2023-08-30T04:01:36;9.73;;;6.80;;
8042;SDS011;4064;48.132;11.366;2023-08-30T04:04:03;6.97;;;6.37;;
8042;SDS011;4064;48.132;11.366;2023-08-30T04:06:29;6.90;;;6.30;;
8042;SDS011;4064;48.132;11.366;2023-08-30T04:08:55;7.47;;;6.00;;
8042;SDS011;4064;48.132;11.366;2023-08-30T04:11:21;6.63;;;5.93;;
8042;SDS011;4064;48.132;11.366;2023-08-30T04:13:47;11.10;;;6.77;;
8042;SDS011;4064;48.132;11.366;2023-08-30T04:16:12;6.87;;;5.87;;
8042;SDS011;4064;48.132;11.366;2023-08-30T04:18:38;6.77;;;6.17;;
8042;SDS011;4064;48.132;11.366;2023-08-30T04:21:03;7.10;;;6.40;;
8042;SDS011;4064;48.132;11.366;2023-08-30T04:23:31;8.20;;;7.33;;
8042;SDS011;4064;48.132;11.366;2023-08-30T04:25:56;6.80;;;6.20;;
8042;SDS011;4064;48.132;11.366;2023-08-30T04:28:22;9.07;;;7.27;;
8042;SDS011;4064;48.132;11.366;2023-08-30T04:30:48;6.00;;;5.40;;
8042;SDS011;4064;48.132;11.366;2023-08-30T04:33:13;6.50;;;5.90;;
8042;SDS011;4064;48.132;11.366;2023-08-30T04:35:39;10.00;;;5.50;;
8042;SDS011;4064;48.132;11.366;2023-08-30T04:38:04;5.93;;;5.33;;
8042;SDS011;4064;48.132;11.366;2023-08-30T04:40:31;5.90;;;5.40;;
8042;SDS011;4064;48.132;11.366;2023-08-30T04:43:00;6.00;;;5.40;;
8042;SDS011;4064;48.132;11.366;2023-08-30T04:45:26;6.00;;;5.50;;
8042;SDS011;4064;48.132;11.366;2023-08-30T04:47:52;6.70;;;6.00;;
8042;SDS011;4064;48.132;11.366;2023-08-30T04:50:18;5.87;;;5.37;;
8042;SDS011;4064;48.132;11.366;2023-08-30T04:52:44;6.00;;;5.50;;
8042;SDS011;4064;48.132;11.366;2023-08-30T04:55:09;6.00;;;5.40;;
8042;SDS011;4064;48.132;11.366;2023-08-30T04:57:35;5.73;;;5.03;;
8042;SDS011;4064;48.132;11.366;2023-08-30T05:00:00;6.53;;;5.83;;
8042;SDS011;4064;48.132;11.366;2023-08-30T05:02:29;7.20;;;5.57;;
8042;SDS011;4064;48.132;11.366;2023-08-30T05:04:55;6.20;;;5.60;;
8042;SDS011;4064;48.132;11.366;2023-08-30T05:07:21;5.87;;;5.30;;
8042;SDS011;4064;48.132;11.366;2023-08-30T05:09:47;9.17;;;5.47;;
8042;SDS011;4064;48.132;11.366;2023-08-30T05:12:12;5.83;;;5.33;;
8042;SDS011;4064;48.132;11.366;2023-08-30T05:14:38;9.60;;;5.90;;
8042;SDS011;4064;48.132;11.366;2023-08-30T05:17:05;7.03;;;6.33;;
8042;SDS011;4064;48.132;11.366;2023-08-30T05:19:34;6.37;;;5.40;;
8042;SDS011;4064;48.132;11.366;2023-08-30T05:21:59;5.70;;;5.20;;
8042;SDS011;4064;48.132;11.366;2023-08-30T05:24:25;6.70;;;6.00;;
8042;SDS011;4064;48.132;11.366;2023-08-30T05:26:51;8.90;;;6.00;;
8042;SDS011;4064;48.132;11.366;2023-08-30T05:29:17;6.83;;;6.13;;
8042;SDS011;4064;48.132;11.366;2023-08-30T05:31:43;8.53;;;6.57;;
8042;SDS011;4064;48.132;11.366;2023-08-30T05:34:09;6.73;;;6.03;;
8042;SDS011;4064;48.132;11.366;2023-08-30T05:36:35;7.13;;;6.43;;
8042;SDS011;4064;48.132;11.366;2023-08-30T05:39:00;6.00;;;5.40;;
8042;SDS011;4064;48.132;11.366;2023-08-30T05:41:28;6.67;;;5.97;;
8042;SDS011;4064;48.132;11.366;2023-08-30T05:43:54;7.73;;;6.80;;
8042;SDS011;4064;48.132;11.366;2023-08-30T05:46:19;5.67;;;5.17;;
8042;SDS011;4064;48.132;11.366;2023-08-30T05:48:45;7.17;;;6.50;;
8042;SDS011;4064;48.132;11.366;2023-08-30T05:51:10;6.07;;;5.47;;
8042;SDS011;4064;48.132;11.366;2023-08-30T05:53:36;7.47;;;6.50;;
8042;SDS011;4064;48.132;11.366;2023-08-30T05:56:02;6.47;;;5.83;;
8042;SDS011;4064;48.132;11.366;2023-08-30T05:58:28;9.17;;;6.10;;
8042;SDS011;4064;48.132;11.366;2023-08-30T06:00:54;6.10;;;5.50;;
8042;SDS011;4064;48.132;11.366;2023-08-30T06:03:20;8.17;;;6.23;;
8042;SDS011;4064;48.132;11.366;2023-08-30T06:05:45;6.97;;;6.20;;
8042;SDS011;4064;48.132;11.366;2023-08-30T06:08:13;6.17;;;5.57;;
8042;SDS011;4064;48.132;11.366;2023-08-30T06:10:39;8.43;;;7.67;;
8042;SDS011;4064;48.132;11.366;2023-08-30T06:13:05;6.50;;;5.83;;
8042;SDS011;4064;48.132;11.366;2023-08-30T06:15:30;9.27;;;6.90;;
8042;SDS011;4064;48.132;11.366;2023-08-30T06:17:56;7.73;;;6.93;;
8042;SDS011;4064;48.132;11.366;2023-08-30T06:20:21;6.03;;;5.53;;
8042;SDS011;4064;48.132;11.366;2023-08-30T06:22:47;7.70;;;6.90;;
8042;SDS011;4064;48.132;11.366;2023-08-30T06:25:13;8.20;;;6.30;;
8042;SDS011;4064;48.132;11.366;2023-08-30T06:27:43;7.60;;;6.80;;
8042;SDS011;4064;48.132;11.366;2023-08-30T06:30:20;8.10;;;6.40;;
8042;SDS011;4064;48.132;11.366;2023-08-30T06:32:45;7.47;;;6.77;;
8042;SDS011;4064;48.132;11.366;2023-08-30T06:35:11;8.57;;;7.77;;
8042;SDS011;4064;48.132;11.366;2023-08-30T06:37:37;7.10;;;6.40;;
8042;SDS011;4064;48.132;11.366;2023-08-30T06:40:02;7.47;;;6.67;;
8042;SDS011;4064;48.132;11.366;2023-08-30T06:42:28;7.23;;;6.43;;
8042;SDS011;4064;48.132;11.366;2023-08-30T06:44:54;7.73;;;6.93;;
8042;SDS011;4064;48.132;11.366;2023-08-30T06:47:22;8.43;;;7.63;;
8042;SDS011;4064;48.132;11.366;2023-08-30T06:49:47;9.73;;;7.10;;
8042;SDS011;4064;48.132;11.366;2023-08-30T06:52:13;8.53;;;7.73;;
8042;SDS011;4064;48.132;11.366;2023-08-30T06:54:38;9.20;;;8.30;;
8042;SDS011;4064;48.132;11.366;2023-08-30T06:57:04;8.93;;;8.07;;
8042;SDS011;4064;48.132;11.366;2023-08-30T06:59:31;9.43;;;8.37;;
8042;SDS011;4064;48.132;11.366;2023-08-30T07:01:57;9.50;;;8.00;;
8042;SDS011;4064;48.132;11.366;2023-08-30T07:04:23;8.03;;;7.20;;
8042;SDS011;4064;48.132;11.366;2023-08-30T07:06:50;8.27;;;7.30;;
8042;SDS011;4064;48.132;11.366;2023-08-30T07:09:16;8.00;;;7.07;;
8042;SDS011;4064;48.132;11.366;2023-08-30T07:11:45;9.20;;;8.30;;
8042;SDS011;4064;48.132;11.366;2023-08-30T07:14:10;8.83;;;7.60;;
8042;SDS011;4064;48.132;11.366;2023-08-30T07:16:37;9.63;;;8.63;;
8042;SDS011;4064;48.132;11.366;2023-08-30T07:19:03;9.10;;;8.20;;
8042;SDS011;4064;48.132;11.366;2023-08-30T07:21:29;8.63;;;7.73;;
8042;SDS011;4064;48.132;11.366;2023-08-30T07:23:54;17.53;;;10.10;;
8042;SDS011;4064;48.132;11.366;2023-08-30T07:26:20;8.50;;;7.60;;
8042;SDS011;4064;48.132;11.366;2023-08-30T07:28:46;9.17;;;8.27;;
8042;SDS011;4064;48.132;11.366;2023-08-30T07:31:11;8.03;;;7.23;;
8042;SDS011;4064;48.132;11.366;2023-08-30T07:33:40;9.20;;;8.20;;
8042;SDS011;4064;48.132;11.366;2023-08-30T07:36:06;9.23;;;8.33;;
8042;SDS011;4064;48.132;11.366;2023-08-30T07:38:33;7.90;;;7.10;;
8042;SDS011;4064;48.132;11.366;2023-08-30T07:41:00;8.17;;;7.37;;
8042;SDS011;4064;48.132;11.366;2023-08-30T07:43:26;7.60;;;6.87;;
8042;SDS011;4064;48.132;11.366;2023-08-30T07:45:51;7.87;;;7.17;;
8042;SDS011;4064;48.132;11.366;2023-08-30T07:48:17;8.70;;;7.90;;
8042;SDS011;4064;48.132;11.366;2023-08-30T07:50:42;8.10;;;7.30;;
8042;SDS011;4064;48.132;11.366;2023-08-30T07:53:08;10.60;;;8.27;;
8042;SDS011;4064;48.132;11.366;2023-08-30T07:55:35;9.50;;;8.23;;
8042;SDS011;4064;48.132;11.366;2023-08-30T07:58:01;9.27;;;8.37;;
8042;SDS011;4064;48.132;11.366;2023-08-30T08:00:28;10.30;;;7.70;;
8042;SDS011;4064;48.132;11.366;2023-08-30T08:02:54;8.77;;;7.97;;
8042;SDS011;4064;48.132;11.366;2023-08-30T08:05:20;9.83;;;8.10;;
8042;SDS011;4064;48.132;11.366;2023-08-30T08:07:50;8.80;;;7.90;;
8042;SDS011;4064;48.132;11.366;2023-08-30T08:10:16;8.67;;;7.87;;
8042;SDS011;4064;48.132;11.366;2023-08-30T08:12:42;8.80;;;8.00;;
8042;SDS011;4064;48.132;11.366;2023-08-30T08:15:08;8.20;;;7.37;;
8042;SDS011;4064;48.132;11.366;2023-08-30T08:17:34;8.90;;;8.00;;
8042;SDS011;4064;48.132;11.366;2023-08-30T08:20:00;8.70;;;7.40;;
8042;SDS011;4064;48.132;11.366;2023-08-30T08:22:26;8.93;;;8.13;;
8042;SDS011;4064;48.132;11.366;2023-08-30T08:24:53;7.00;;;6.37;;
8042;SDS011;4064;48.132;11.366;2023-08-30T08:27:21;9.30;;;7.57;;
8042;SDS011;4064;48.132;11.366;2023-08-30T08:29:47;8.77;;;7.97;;
8042;SDS011;4064;48.132;11.366;2023-08-30T08:32:12;8.60;;;7.80;;
8042;SDS011;4064;48.132;11.366;2023-08-30T08:34:38;7.70;;;7.00;;
8042;SDS011;4064;48.132;11.366;2023-08-30T08:37:04;7.40;;;6.77;;
8042;SDS011;4064;48.132;11.366;2023-08-30T08:39:31;7.60;;;7.00;;
8042;SDS011;4064;48.132;11.366;2023-08-30T08:41:57;6.70;;;6.10;;
8042;SDS011;4064;48.132;11.366;2023-08-30T08:44:25;8.90;;;8.00;;
8042;SDS011;4064;48.132;11.366;2023-08-30T08:46:56;6.47;;;5.87;;
8042;SDS011;4064;48.132;11.366;2023-08-30T08:49:22;6.47;;;5.90;;
8042;SDS011;4064;48.132;11.366;2023-08-30T08:51:53;6.50;;;6.00;;
8042;SDS011;4064;48.132;11.366;2023-08-30T08:54:19;5.83;;;5.33;;
8042;SDS011;4064;48.132;11.366;2023-08-30T08:56:45;6.17;;;5.43;;
8042;SDS011;4064;48.132;11.366;2023-08-30T08:59:11;6.60;;;6.00;;
8042;SDS011;4064;48.132;11.366;2023-08-30T09:01:38;6.67;;;5.93;;
8042;SDS011;4064;48.132;11.366;2023-08-30T09:04:10;6.90;;;6.30;;
8042;SDS011;4064;48.132;11.366;2023-08-30T09:06:36;7.20;;;6.50;;
8042;SDS011;4064;48.132;11.366;2023-08-30T09:09:04;6.43;;;5.93;;
8042;SDS011;4064;48.132;11.366;2023-08-30T09:11:31;5.73;;;5.23;;
8042;SDS011;4064;48.132;11.366;2023-08-30T09:13:57;6.37;;;5.77;;
8042;SDS011;4064;48.132;11.366;2023-08-30T09:16:23;5.80;;;5.20;;
8042;SDS011;4064;48.132;11.366;2023-08-30T09:18:58;6.77;;;6.13;;
8042;SDS011;4064;48.132;11.366;2023-08-30T09:21:24;5.37;;;4.87;;
8042;SDS011;4064;48.132;11.366;2023-08-30T09:23:57;5.40;;;4.90;;
8042;SDS011;4064;48.132;11.366;2023-08-30T09:26:23;5.83;;;5.30;;
8042;SDS011;4064;48.132;11.366;2023-08-30T09:28:49;5.43;;;4.90;;
8042;SDS011;4064;48.132;11.366;2023-08-30T09:31:18;5.17;;;4.67;;
8042;SDS011;4064;48.132;11.366;2023-08-30T09:33:47;5.10;;;4.60;;
8042;SDS011;4064;48.132;11.366;2023-08-30T09:36:15;6.23;;;5.63;;
8042;SDS011;4064;48.132;11.366;2023-08-30T09:38:47;21.07;;;7.50;;
8042;SDS011;4064;48.132;11.366;2023-08-30T09:41:14;6.80;;;4.80;;
8042;SDS011;4064;48.132;11.366;2023-08-30T09:43:43;5.03;;;4.63;;
8042;SDS011;4064;48.132;11.366;2023-08-30T09:46:09;5.20;;;4.80;;
8042;SDS011;4064;48.132;11.366;2023-08-30T09:48:34;6.50;;;5.90;;
8042;SDS011;4064;48.132;11.366;2023-08-30T09:51:03;5.20;;;4.80;;
8042;SDS011;4064;48.132;11.366;2023-08-30T09:53:30;6.07;;;5.50;;
8042;SDS011;4064;48.132;11.366;2023-08-30T09:56:03;5.70;;;5.20;;
8042;SDS011;4064;48.132;11.366;2023-08-30T09:58:29;5.37;;;4.87;;
8042;SDS011;4064;48.132;11.366;2023-08-30T10:00:55;5.10;;;4.20;;
8042;SDS011;4064;48.132;11.366;2023-08-30T10:03:23;4.90;;;3.90;;
8042;SDS011;4064;48.132;11.366;2023-08-30T10:05:49;3.77;;;3.47;;
8042;SDS011;4064;48.132;11.366;2023-08-30T10:08:16;3.90;;;3.60;;
8042;SDS011;4064;48.132;11.366;2023-08-30T10:10:43;4.37;;;4.07;;
8042;SDS011;4064;48.132;11.366;2023-08-30T10:13:08;3.60;;;3.30;;
8042;SDS011;4064;48.132;11.366;2023-08-30T10:15:35;3.37;;;3.10;;
8042;SDS011;4064;48.132;11.366;2023-08-30T10:18:06;2.90;;;2.63;;
8042;SDS011;4064;48.132;11.366;2023-08-30T10:20:34;3.17;;;2.87;;
8042;SDS011;4064;48.132;11.366;2023-08-30T10:23:02;3.40;;;3.10;;
8042;SDS011;4064;48.132;11.366;2023-08-30T10:25:28;3.43;;;2.80;;
8042;SDS011;4064;48.132;11.366;2023-08-30T10:27:56;3.30;;;3.00;;
8042;SDS011;4064;48.132;11.366;2023-08-30T10:30:23;3.30;;;3.00;;
8042;SDS011;4064;48.132;11.366;2023-08-30T10:32:49;2.97;;;2.77;;
8042;SDS011;4064;48.132;11.366;2023-08-30T10:35:17;2.70;;;2.50;;
8042;SDS011;4064;48.132;11.366;2023-08-30T10:38:04;4.17;;;2.97;;
8042;SDS011;4064;48.132;11.366;2023-08-30T10:40:29;3.00;;;2.80;;
8042;SDS011;4064;48.132;11.366;2023-08-30T10:42:58;3.80;;;3.00;;
8042;SDS011;4064;48.132;11.366;2023-08-30T10:45:28;2.70;;;2.40;;
8042;SDS011;4064;48.132;11.366;2023-08-30T10:47:55;2.73;;;2.53;;
8042;SDS011;4064;48.132;11.366;2023-08-30T10:50:27;2.83;;;2.57;;
8042;SDS011;4064;48.132;11.366;2023-08-30T10:52:57;2.70;;;2.50;;
8042;SDS011;4064;48.132;11.366;2023-08-30T10:55:23;2.37;;;2.27;;
8042;SDS011;4064;48.132;11.366;2023-08-30T10:58:02;2.70;;;2.50;;
8042;SDS011;4064;48.132;11.366;2023-08-30T11:00:31;3.03;;;2.47;;
8042;SDS011;4064;48.132;11.366;2023-08-30T11:02:58;2.20;;;2.00;;
8042;SDS011;4064;48.132;11.366;2023-08-30T11:05:25;2.13;;;1.93;;
8042;SDS011;4064;48.132;11.366;2023-08-30T11:07:52;2.73;;;2.53;;
8042;SDS011;4064;48.132;11.366;2023-08-30T11:10:18;2.17;;;1.97;;
8042;SDS011;4064;48.132;11.366;2023-08-30T11:12:45;5.20;;;2.50;;
8042;SDS011;4064;48.132;11.366;2023-08-30T11:15:14;3.43;;;2.73;;
8042;SDS011;4064;48.132;11.366;2023-08-30T11:17:40;3.00;;;2.17;;
8042;SDS011;4064;48.132;11.366;2023-08-30T11:20:07;2.30;;;2.10;;
8042;SDS011;4064;48.132;11.366;2023-08-30T11:22:39;3.00;;;2.27;;
8042;SDS011;4064;48.132;11.366;2023-08-30T11:25:07;2.73;;;2.53;;
8042;SDS011;4064;48.132;11.366;2023-08-30T11:27:34;2.57;;;2.10;;
8042;SDS011;4064;48.132;11.366;2023-08-30T11:30:00;2.70;;;2.50;;
8042;SDS011;4064;48.132;11.366;2023-08-30T11:32:28;2.57;;;2.37;;
8042;SDS011;4064;48.132;11.366;2023-08-30T11:34:58;3.37;;;3.07;;
8042;SDS011;4064;48.132;11.366;2023-08-30T11:37:25;3.00;;;2.80;;
8042;SDS011;4064;48.132;11.366;2023-08-30T11:39:52;2.40;;;2.10;;
8042;SDS011;4064;48.132;11.366;2023-08-30T11:42:19;4.10;;;3.00;;
8042;SDS011;4064;48.132;11.366;2023-08-30T11:44:46;2.40;;;2.20;;
8042;SDS011;4064;48.132;11.366;2023-08-30T11:47:17;3.00;;;2.50;;
8042;SDS011;4064;48.132;11.366;2023-08-30T11:49:48;2.60;;;2.40;;
8042;SDS011;4064;48.132;11.366;2023-08-30T11:52:15;2.80;;;2.00;;
8042;SDS011;4064;48.132;11.366;2023-08-30T11:54:42;2.60;;;2.33;;
8042;SDS011;4064;48.132;11.366;2023-08-30T11:57:09;2.50;;;2.30;;
8042;SDS011;4064;48.132;11.366;2023-08-30T11:59:35;2.40;;;2.20;;
8042;SDS011;4064;48.132;11.366;2023-08-30T12:02:02;3.17;;;2.77;;
8042;SDS011;4064;48.132;11.366;2023-08-30T12:04:28;3.33;;;3.03;;
8042;SDS011;4064;48.132;11.366;2023-08-30T12:06:55;3.60;;;3.17;;
8042;SDS011;4064;48.132;11.366;2023-08-30T12:09:21;2.33;;;2.10;;
8042;SDS011;4064;48.132;11.366;2023-08-30T12:11:48;4.33;;;2.30;;
8042;SDS011;4064;48.132;11.366;2023-08-30T12:14:14;2.57;;;1.80;;
8042;SDS011;4064;48.132;11.366;2023-08-30T12:16:40;2.20;;;2.00;;
8042;SDS011;4064;48.132;11.366;2023-08-30T12:19:09;2.00;;;1.80;;
8042;SDS011;4064;48.132;11.366;2023-08-30T12:21:39;2.37;;;2.00;;
8042;SDS011;4064;48.132;11.366;2023-08-30T12:24:08;2.20;;;2.00;;
8042;SDS011;4064;48.132;11.366;2023-08-30T12:26:35;2.00;;;1.90;;
8042;SDS011;4064;48.132;11.366;2023-08-30T12:29:03;2.10;;;1.90;;
8042;SDS011;4064;48.132;11.366;2023-08-30T12:31:30;2.30;;;2.10;;
8042;SDS011;4064;48.132;11.366;2023-08-30T12:33:56;2.40;;;2.20;;
8042;SDS011;4064;48.132;11.366;2023-08-30T12:36:22;1.73;;;1.63;;
8042;SDS011;4064;48.132;11.366;2023-08-30T12:38:47;3.73;;;2.20;;
8042;SDS011;4064;48.132;11.366;2023-08-30T12:41:13;2.00;;;1.57;;
8042;SDS011;4064;48.132;11.366;2023-08-30T12:43:39;2.30;;;1.70;;
8042;SDS011;4064;48.132;11.366;2023-08-30T12:46:05;2.10;;;1.77;;
8042;SDS011;4064;48.132;11.366;2023-08-30T12:48:32;2.20;;;1.40;;
8042;SDS011;4064;48.132;11.366;2023-08-30T12:50:57;2.03;;;1.77;;
8042;SDS011;4064;48.132;11.366;2023-08-30T12:53:23;2.07;;;1.77;;
8042;SDS011;4064;48.132;11.366;2023-08-30T12:55:49;2.10;;;1.50;;
8042;SDS011;4064;48.132;11.366;2023-08-30T12:58:15;1.63;;;1.30;;
8042;SDS011;4064;48.132;11.366;2023-08-30T13:00:41;1.93;;;1.77;;
8042;SDS011;4064;48.132;11.366;2023-08-30T13:03:07;2.00;;;1.80;;
8042;SDS011;4064;48.132;11.366;2023-08-30T13:05:33;2.93;;;1.67;;
8042;SDS011;4064;48.132;11.366;2023-08-30T13:07:59;2.77;;;2.20;;
8042;SDS011;4064;48.132;11.366;2023-08-30T13:10:25;2.83;;;2.03;;
8042;SDS011;4064;48.132;11.366;2023-08-30T13:12:51;2.73;;;2.50;;
8042;SDS011;4064;48.132;11.366;2023-08-30T13:15:17;2.50;;;2.30;;
8042;SDS011;4064;48.132;11.366;2023-08-30T13:17:43;3.20;;;2.70;;
8042;SDS011;4064;48.132;11.366;2023-08-30T13:30:21;3.80;;;3.00;;
8042;SDS011;4064;48.132;11.366;2023-08-30T13:32:46;3.23;;;2.93;;
8042;SDS011;4064;48.132;11.366;2023-08-30T13:35:12;22.80;;;9.67;;
8042;SDS011;4064;48.132;11.366;2023-08-30T13:37:38;19.17;;;14.20;;
8042;SDS011;4064;48.132;11.366;2023-08-30T13:40:04;20.47;;;18.33;;
8042;SDS011;4064;48.132;11.366;2023-08-30T13:42:31;6.80;;;6.13;;
8042;SDS011;4064;48.132;11.366;2023-08-30T13:44:58;4.77;;;3.90;;
8042;SDS011;4064;48.132;11.366;2023-08-30T13:47:23;3.47;;;3.17;;
8042;SDS011;4064;48.132;11.366;2023-08-30T13:49:49;3.47;;;3.17;;
8042;SDS011;4064;48.132;11.366;2023-08-30T13:52:15;3.03;;;2.80;;
8042;SDS011;4064;48.132;11.366;2023-08-30T13:54:41;3.10;;;2.90;;
8042;SDS011;4064;48.132;11.366;2023-08-30T13:57:07;3.13;;;2.83;;
8042;SDS011;4064;48.132;11.366;2023-08-30T13:59:32;4.03;;;3.13;;
8042;SDS011;4064;48.132;11.366;2023-08-30T14:02:00;2.33;;;2.13;;
8042;SDS011;4064;48.132;11.366;2023-08-30T14:04:29;2.10;;;2.00;;
8042;SDS011;4064;48.132;11.366;2023-08-30T14:06:57;3.33;;;2.57;;
8042;SDS011;4064;48.132;11.366;2023-08-30T14:09:23;5.60;;;2.20;;
8042;SDS011;4064;48.132;11.366;2023-08-30T14:11:49;2.97;;;2.10;;
8042;SDS011;4064;48.132;11.366;2023-08-30T14:14:15;2.47;;;2.27;;
8042;SDS011;4064;48.132;11.366;2023-08-30T14:16:40;2.50;;;2.30;;
8042;SDS011;4064;48.132;11.366;2023-08-30T14:19:06;2.60;;;2.40;;
8042;SDS011;4064;48.132;11.366;2023-08-30T14:21:32;2.90;;;2.27;;
8042;SDS011;4064;48.132;11.366;2023-08-30T14:23:58;1.57;;;1.47;;
8042;SDS011;4064;48.132;11.366;2023-08-30T14:26:24;2.67;;;1.73;;
8042;SDS011;4064;48.132;11.366;2023-08-30T14:28:51;1.93;;;1.60;;
8042;SDS011;4064;48.132;11.366;2023-08-30T14:31:16;1.63;;;1.53;;
8042;SDS011;4064;48.132;11.366;2023-08-30T14:33:43;1.37;;;1.23;;
8042;SDS011;4064;48.132;11.366;2023-08-30T14:36:12;1.60;;;1.40;;
8042;SDS011;4064;48.132;11.366;2023-08-30T14:38:39;1.93;;;1.50;;
8042;SDS011;4064;48.132;11.366;2023-08-30T14:41:06;2.10;;;1.90;;
8042;SDS011;4064;48.132;11.366;2023-08-30T14:43:32;2.30;;;1.60;;
8042;SDS011;4064;48.132;11.366;2023-08-30T14:46:02;3.33;;;1.50;;
8042;SDS011;4064;48.132;11.366;2023-08-30T14:48:29;2.57;;;2.10;;
8042;SDS011;4064;48.132;11.366;2023-08-30T14:50:57;2.10;;;1.77;;
8042;SDS011;4064;48.132;11.366;2023-08-30T14:53:23;1.73;;;1.40;;
8042;SDS011;4064;48.132;11.366;2023-08-30T14:55:49;2.10;;;1.80;;
8042;SDS011;4064;48.132;11.366;2023-08-30T14:58:14;2.03;;;1.60;;
8042;SDS011;4064;48.132;11.366;2023-08-30T15:00:40;2.03;;;1.50;;
8042;SDS011;4064;48.132;11.366;2023-08-30T15:03:06;1.70;;;1.57;;
8042;SDS011;4064;48.132;11.366;2023-08-30T15:05:32;1.67;;;1.43;;
8042;SDS011;4064;48.132;11.366;2023-08-30T15:07:58;2.13;;;1.73;;
8042;SDS011;4064;48.132;11.366;2023-08-30T15:10:23;2.23;;;1.53;;